createdAt,value
2018-11-28T00:01:47.388Z,100317.46
2018-11-28T00:04:17.235Z,100330.11
2018-11-28T00:06:46.796Z,100328.16
2018-11-28T00:09:17.580Z,100325.50
2018-11-28T00:11:47.725Z,100329.67
2018-11-28T00:14:18.260Z,100326.74
2018-11-28T00:16:47.916Z,100328.91
2018-11-28T00:19:18.078Z,100322.64
2018-11-28T00:21:47.856Z,100330.11
2018-11-28T00:24:17.684Z,100327.69
2018-11-28T00:26:47.552Z,100332.70
2018-11-28T00:29:17.667Z,100336.11
2018-11-28T00:31:47.278Z,100340.34
2018-11-28T00:34:17.056Z,100330.28
2018-11-28T00:36:46.983Z,100332.44
2018-11-28T00:39:16.676Z,100333.99
2018-11-28T00:41:46.577Z,100323.98
2018-11-28T00:44:16.400Z,100320.65
2018-11-28T00:46:46.518Z,100322.13
2018-11-28T00:49:16.884Z,100322.59
2018-11-28T00:51:46.856Z,100325.53
2018-11-28T00:54:17.359Z,100331.53
2018-11-28T00:56:47.547Z,100328.94
2018-11-28T00:59:18.563Z,100335.07
2018-11-28T01:01:48.268Z,100335.37
2018-11-28T01:04:18.306Z,100335.63
2018-11-28T01:06:48.536Z,100233.83
2018-11-28T01:09:18.287Z,100335.37
2018-11-28T01:11:49.218Z,100341.20
2018-11-28T01:14:19.490Z,100335.94
2018-11-28T01:16:50.057Z,100334.64
2018-11-28T01:19:20.187Z,100342.97
2018-11-28T01:21:50.096Z,100345.42
2018-11-28T01:24:20.757Z,100345.42
2018-11-28T01:26:50.942Z,100349.18
2018-11-28T01:29:21.858Z,100348.23
2018-11-28T01:31:51.719Z,100339.50
2018-11-28T01:34:22.335Z,100337.30
2018-11-28T01:36:52.046Z,100339.55
2018-11-28T01:39:22.294Z,100342.31
2018-11-28T01:41:52.378Z,100341.70
2018-11-28T01:44:22.301Z,100340.23
2018-11-28T01:46:52.325Z,100335.66
2018-11-28T01:49:22.498Z,100336.62
2018-11-28T01:51:52.475Z,100337.78
2018-11-28T01:54:22.529Z,100332.94
2018-11-28T01:56:52.872Z,100338.30
2018-11-28T01:59:22.763Z,100337.00
2018-11-28T02:01:52.552Z,100338.16
2018-11-28T02:04:22.463Z,100335.09
2018-11-28T02:06:52.406Z,100337.64
2018-11-28T02:09:22.263Z,100335.80
2018-11-28T02:11:53.103Z,100344.00
2018-11-28T02:14:23.889Z,100333.44
2018-11-28T02:16:53.638Z,100342.16
2018-11-28T02:19:25.510Z,100342.58
2018-11-28T02:21:55.475Z,100345.99
2018-11-28T02:24:25.253Z,100344.78
2018-11-28T02:26:55.728Z,100339.55
2018-11-28T02:29:25.761Z,100340.98
2018-11-28T02:31:55.683Z,100347.66
2018-11-28T02:34:26.327Z,100351.73
2018-11-28T02:36:58.080Z,100348.53
2018-11-28T02:39:28.539Z,100355.45
2018-11-28T02:41:58.917Z,100345.08
2018-11-28T02:44:29.643Z,100332.91
2018-11-28T02:47:00.562Z,100326.52
2018-11-28T02:49:31.225Z,100329.85
2018-11-28T02:52:01.672Z,100325.58
2018-11-28T02:54:32.100Z,100323.28
2018-11-28T02:57:02.799Z,100321.13
2018-11-28T02:59:32.968Z,100324.58
2018-11-28T03:02:04.799Z,100323.58
2018-11-28T03:04:35.600Z,100327.73
2018-11-28T03:07:06.406Z,100327.42
2018-11-28T03:09:37.180Z,100329.31
2018-11-28T03:12:06.995Z,100323.19
2018-11-28T03:14:37.358Z,100327.20
2018-11-28T03:17:08.513Z,100324.41
2018-11-28T03:19:38.748Z,100320.87
2018-11-28T03:22:08.908Z,100320.73
2018-11-28T03:24:38.599Z,100317.46
2018-11-28T03:27:08.543Z,100329.58
2018-11-28T03:29:39.069Z,100335.73
2018-11-28T03:32:08.917Z,100333.46
2018-11-28T03:34:38.665Z,100333.97
2018-11-28T03:37:11.563Z,100329.31
2018-11-28T03:39:42.009Z,100331.77
2018-11-28T03:42:11.701Z,100334.41
2018-11-28T03:44:41.621Z,100343.34
2018-11-28T03:47:11.294Z,100338.82
2018-11-28T03:49:41.268Z,100338.00
2018-11-28T03:52:11.978Z,100335.63
2018-11-28T03:54:41.910Z,100333.98
2018-11-28T03:57:12.098Z,100338.64
2018-11-28T03:59:42.253Z,100333.12
2018-11-28T04:02:12.205Z,100335.23
2018-11-28T04:04:42.112Z,100329.37
2018-11-28T04:07:12.006Z,100330.48
2018-11-28T04:09:41.868Z,100330.27
2018-11-28T04:12:11.682Z,100329.10
2018-11-28T04:14:41.843Z,100332.45
2018-11-28T04:17:11.627Z,100331.77
2018-11-28T04:19:41.586Z,100332.32
2018-11-28T04:22:12.014Z,100332.27
2018-11-28T04:24:41.822Z,100343.64
2018-11-28T04:27:13.704Z,100346.52
2018-11-28T04:29:43.792Z,100329.01
2018-11-28T04:32:13.422Z,100331.25
2018-11-28T04:34:43.222Z,100336.55
2018-11-28T04:37:13.245Z,100337.53
2018-11-28T04:39:42.901Z,100332.48
2018-11-28T04:42:12.798Z,100333.09
2018-11-28T04:44:42.974Z,100337.09
2018-11-28T04:47:14.198Z,100252.00
2018-11-28T04:49:43.752Z,100329.03
2018-11-28T04:52:13.479Z,100336.28
2018-11-28T04:54:43.200Z,100329.43
2018-11-28T04:57:13.308Z,100331.33
2018-11-28T04:59:42.852Z,100321.32
2018-11-28T05:02:12.762Z,100320.98
2018-11-28T05:04:42.997Z,100329.97
2018-11-28T05:07:28.934Z,100323.42
2018-11-28T05:10:00.072Z,100325.13
2018-11-28T05:12:40.876Z,100324.47
2018-11-28T05:15:15.115Z,100329.36
2018-11-28T05:17:46.155Z,100332.26
2018-11-28T05:20:19.908Z,100334.84
2018-11-28T05:22:50.219Z,100332.95
2018-11-28T05:25:21.836Z,100334.81
2018-11-28T05:27:52.194Z,100340.04
2018-11-28T05:30:30.354Z,100337.98
2018-11-28T05:33:00.822Z,100341.45
2018-11-28T05:35:40.003Z,100340.59
2018-11-28T05:38:14.623Z,100349.77
2018-11-28T05:40:45.214Z,100230.31
2018-11-28T05:43:14.965Z,100346.95
2018-11-28T05:45:45.150Z,100343.16
2018-11-28T05:48:15.699Z,100343.20
2018-11-28T05:50:45.627Z,100338.42
2018-11-28T05:53:15.565Z,100354.12
2018-11-28T05:55:45.520Z,100352.05
2018-11-28T05:58:15.262Z,100349.86
2018-11-28T06:00:45.058Z,100356.73
2018-11-28T06:03:14.999Z,100352.11
2018-11-28T06:05:45.502Z,100352.63
2018-11-28T06:08:17.028Z,100353.66
2018-11-28T06:10:47.483Z,100247.87
2018-11-28T06:13:17.326Z,100355.19
2018-11-28T06:15:47.995Z,100351.04
2018-11-28T06:18:17.780Z,100357.64
2018-11-28T06:20:47.469Z,100359.49
2018-11-28T06:23:17.412Z,100370.64
2018-11-28T06:25:47.148Z,100381.00
2018-11-28T06:28:18.316Z,100253.86
2018-11-28T06:30:49.133Z,100372.09
2018-11-28T06:33:18.959Z,100373.23
2018-11-28T06:35:48.744Z,100375.90
2018-11-28T06:38:19.898Z,100266.84
2018-11-28T06:40:50.057Z,100374.39
2018-11-28T06:43:19.694Z,100366.83
2018-11-28T06:45:49.822Z,100366.63
2018-11-28T06:48:19.721Z,100368.00
2018-11-28T06:50:49.418Z,100372.74
2018-11-28T06:53:19.760Z,100368.56
2018-11-28T06:55:49.648Z,100373.41
2018-11-28T06:58:20.006Z,100375.52
2018-11-28T07:00:51.586Z,100372.27
2018-11-28T07:03:22.069Z,100378.06
2018-11-28T07:05:52.084Z,100383.11
2018-11-28T07:08:23.398Z,100388.94
2018-11-28T07:10:53.495Z,100388.67
2018-11-28T07:13:23.566Z,100390.02
2018-11-28T07:15:53.518Z,100393.30
2018-11-28T07:18:35.076Z,100394.30
2018-11-28T07:21:05.832Z,100392.47
2018-11-28T07:23:36.505Z,100400.94
2018-11-28T07:26:06.568Z,100408.27
2018-11-28T07:28:39.424Z,100403.34
2018-11-28T07:31:09.671Z,100398.69
2018-11-28T07:33:40.123Z,100405.16
2018-11-28T07:36:10.524Z,100407.75
2018-11-28T07:38:40.395Z,100400.33
2018-11-28T07:41:11.434Z,100403.60
2018-11-28T07:43:41.374Z,100307.75
2018-11-28T07:46:11.011Z,100401.30
2018-11-28T07:48:41.563Z,100400.59
2018-11-28T07:51:11.693Z,100406.91
2018-11-28T07:53:42.053Z,100302.92
2018-11-28T07:56:13.505Z,100407.23
2018-11-28T07:58:43.771Z,100406.34
2018-11-28T08:01:13.308Z,100407.92
2018-11-28T08:03:44.023Z,100414.64
2018-11-28T08:06:13.533Z,100406.86
2018-11-28T08:08:44.166Z,100405.77
2018-11-28T08:11:14.756Z,100416.66
2018-11-28T08:13:44.490Z,100409.80
2018-11-28T08:16:15.444Z,100411.61
2018-11-28T08:18:45.717Z,100412.91
2018-11-28T08:21:15.348Z,100412.19
2018-11-28T08:23:45.081Z,100409.80
2018-11-28T08:26:16.744Z,100410.14
2018-11-28T08:28:46.315Z,100402.73
2018-11-28T08:31:16.228Z,100413.11
2018-11-28T08:33:46.524Z,100395.87
2018-11-28T08:36:16.409Z,100405.66
2018-11-28T08:38:46.515Z,100405.09
2018-11-28T08:41:17.105Z,100407.27
2018-11-28T08:43:47.091Z,100405.28
2018-11-28T08:46:16.849Z,100403.61
2018-11-28T08:48:47.152Z,100401.83
2018-11-28T08:51:16.750Z,100395.66
2018-11-28T08:53:46.560Z,100398.86
2018-11-28T08:56:16.380Z,100397.91
2018-11-28T08:58:46.110Z,100403.74
2018-11-28T09:01:15.923Z,100399.11
2018-11-28T09:03:45.398Z,100403.03
2018-11-28T09:06:15.292Z,100395.45
2018-11-28T09:08:45.140Z,100416.37
2018-11-28T09:11:15.197Z,100404.53
2018-11-28T09:13:45.571Z,100403.23
2018-11-28T09:16:17.285Z,100401.77
2018-11-28T09:18:48.250Z,100407.50
2018-11-28T09:21:17.953Z,100403.89
2018-11-28T09:23:48.542Z,100401.20
2018-11-28T09:26:19.113Z,100395.91
2018-11-28T09:28:49.303Z,100404.53
2018-11-28T09:31:19.164Z,100404.15
2018-11-28T09:33:48.721Z,100405.03
2018-11-28T09:36:19.445Z,100403.96
2018-11-28T09:38:49.522Z,100399.20
2018-11-28T09:41:20.147Z,100402.84
2018-11-28T09:43:50.254Z,100408.25
2018-11-28T09:46:21.066Z,100404.55
2018-11-28T09:48:52.680Z,100405.78
2018-11-28T09:51:22.179Z,100393.48
2018-11-28T09:53:53.910Z,100394.69
2018-11-28T09:56:23.990Z,100390.04
2018-11-28T09:58:54.878Z,100387.46
2018-11-28T10:01:25.249Z,100380.84
2018-11-28T10:03:55.714Z,100281.80
2018-11-28T10:06:25.689Z,100384.53
2018-11-28T10:08:57.715Z,100389.30
2018-11-28T10:11:29.354Z,100375.84
2018-11-28T10:14:02.019Z,100373.63
2018-11-28T10:16:32.154Z,100368.91
2018-11-28T10:19:02.888Z,100376.91
2018-11-28T10:21:33.650Z,100374.50
2018-11-28T10:24:04.008Z,100362.98
2018-11-28T10:26:33.661Z,100363.16
2018-11-28T10:29:03.245Z,100364.31
2018-11-28T10:31:33.428Z,100360.90
2018-11-28T10:34:03.851Z,100363.20
2018-11-28T10:36:33.569Z,100351.94
2018-11-28T10:39:05.441Z,100350.64
2018-11-28T10:41:35.175Z,100346.65
2018-11-28T10:44:05.329Z,100347.80
2018-11-28T10:46:35.846Z,100344.22
2018-11-28T10:49:05.651Z,100340.78
2018-11-28T10:51:35.733Z,100332.51
2018-11-28T10:54:07.446Z,100332.84
2018-11-28T10:56:37.263Z,100330.89
2018-11-28T11:06:22.913Z,100333.52
2018-11-28T11:11:01.541Z,100334.16
2018-11-28T11:13:36.586Z,100340.34
2018-11-28T11:16:08.052Z,100330.88
2018-11-28T11:18:38.142Z,100323.09
2018-11-28T11:21:08.723Z,100322.90
2018-11-28T11:23:39.572Z,100323.21
2018-11-28T11:26:09.811Z,100311.13
2018-11-28T11:28:39.933Z,100314.05
2018-11-28T11:31:10.714Z,100314.70
2018-11-28T11:33:40.786Z,100307.50
2018-11-28T11:36:10.390Z,100302.43
2018-11-28T11:38:41.246Z,100297.22
2018-11-28T11:41:11.639Z,100300.64
2018-11-28T11:43:41.534Z,100300.94
2018-11-28T11:46:12.441Z,100299.97
2018-11-28T11:48:42.353Z,100300.90
2018-11-28T11:51:12.907Z,100295.71
2018-11-28T11:53:43.819Z,100302.53
2018-11-28T11:56:14.476Z,100293.86
2018-11-28T11:58:44.026Z,100304.27
2018-11-28T12:01:17.059Z,100300.46
2018-11-28T12:03:48.560Z,100295.17
2018-11-28T12:06:19.696Z,100301.60
2018-11-28T12:08:50.871Z,100298.43
2018-11-28T12:11:20.953Z,100296.17
2018-11-28T12:13:52.677Z,100305.63
2018-11-28T12:16:22.261Z,100297.64
2018-11-28T12:18:52.144Z,100295.20
2018-11-28T12:21:22.768Z,100284.58
2018-11-28T12:23:52.333Z,100287.25
2018-11-28T12:26:23.353Z,100281.15
2018-11-28T12:28:53.655Z,100288.25
2018-11-28T12:31:25.083Z,100283.56
2018-11-28T12:33:55.188Z,100279.39
2018-11-28T12:36:26.251Z,100271.99
2018-11-28T12:38:56.454Z,100292.17
2018-11-28T12:41:26.714Z,100294.65
2018-11-28T12:43:56.787Z,100298.75
2018-11-28T12:46:26.359Z,100295.49
2018-11-28T12:48:56.629Z,100294.87
2018-11-28T12:51:26.465Z,100292.01
2018-11-28T12:53:56.444Z,100284.58
2018-11-28T12:56:26.413Z,100216.33
2018-11-28T12:58:56.613Z,100282.52
2018-11-28T13:01:26.538Z,100284.30
2018-11-28T13:03:56.966Z,100278.40
2018-11-28T13:06:29.807Z,100280.01
2018-11-28T13:08:59.657Z,100278.87
2018-11-28T13:11:30.619Z,100273.49
2018-11-28T13:14:04.016Z,100284.09
2018-11-28T13:16:34.067Z,100272.17
2018-11-28T13:19:04.873Z,100278.65
2018-11-28T13:21:35.647Z,100266.61
2018-11-28T13:24:06.922Z,100279.32
2018-11-28T13:26:39.550Z,100281.44
2018-11-28T13:29:13.493Z,100281.77
2018-11-28T13:31:46.802Z,100268.87
2018-11-28T13:34:22.975Z,100188.77
2018-11-28T13:36:55.928Z,100262.03
2018-11-28T13:39:27.745Z,100264.63
2018-11-28T13:41:58.971Z,100269.68
2018-11-28T13:44:34.005Z,100276.06
2018-11-28T13:47:06.098Z,100285.04
2018-11-28T13:49:37.315Z,100267.64
2018-11-28T13:52:11.498Z,100273.16
2018-11-28T13:55:37.924Z,100190.61
2018-11-28T13:57:19.569Z,100270.89
2018-11-28T13:59:49.637Z,100265.98
2018-11-28T14:02:22.114Z,100267.61
2018-11-28T14:04:54.273Z,100273.13
2018-11-28T14:07:27.540Z,100272.48
2018-11-28T14:09:59.838Z,100270.71
2018-11-28T14:12:32.506Z,100264.35
2018-11-28T14:15:07.974Z,100277.03
2018-11-28T14:17:44.439Z,100283.06
2018-11-28T14:20:19.942Z,100266.33
2018-11-28T14:22:52.774Z,100271.03
2018-11-28T14:25:24.309Z,100273.00
2018-11-28T14:27:57.421Z,100277.56
2018-11-28T14:30:30.789Z,100281.52
2018-11-28T14:33:04.281Z,100275.84
2018-11-28T14:35:36.710Z,100276.18
2018-11-28T14:38:10.186Z,100277.52
2018-11-28T14:40:42.052Z,100290.88
2018-11-28T14:43:14.811Z,100291.19
2018-11-28T14:45:48.004Z,100292.48
2018-11-28T14:48:20.405Z,100289.73
2018-11-28T14:50:57.103Z,100280.73
2018-11-28T14:53:33.234Z,100284.30
2018-11-28T14:56:06.672Z,100276.02
2018-11-28T14:58:41.683Z,100176.42
2018-11-28T15:01:13.892Z,100272.91
2018-11-28T15:03:47.755Z,100282.13
2018-11-28T15:06:33.719Z,100278.38
2018-11-28T15:09:10.961Z,100279.31
2018-11-28T15:11:46.993Z,100284.32
2018-11-28T15:14:19.606Z,100287.06
2018-11-28T15:16:55.574Z,100289.13
2018-11-28T15:19:27.653Z,100291.23
2018-11-28T15:22:00.943Z,100286.67
2018-11-28T15:24:33.435Z,100166.84
2018-11-28T15:27:07.536Z,100280.80
2018-11-28T15:29:38.987Z,100281.27
2018-11-28T15:32:09.776Z,100280.11
2018-11-28T15:34:44.285Z,100280.92
2018-11-28T15:37:14.778Z,100277.77
2018-11-28T15:39:45.521Z,100279.38
2018-11-28T15:42:15.588Z,100280.85
2018-11-28T15:44:46.563Z,100273.50
2018-11-28T15:47:17.847Z,100270.73
2018-11-28T15:49:47.841Z,100274.08
2018-11-28T15:52:17.727Z,100275.51
2018-11-28T15:54:48.005Z,100266.82
2018-11-28T15:57:20.416Z,100267.45
2018-11-28T15:59:51.306Z,100270.70
2018-11-28T16:02:22.042Z,100272.78
2018-11-28T16:04:51.726Z,100272.77
2018-11-28T16:07:21.408Z,100278.91
2018-11-28T16:09:57.218Z,100278.75
2018-11-28T16:12:27.403Z,100294.75
2018-11-28T16:14:58.267Z,100288.59
2018-11-28T16:17:28.374Z,100285.52
2018-11-28T16:19:59.324Z,100283.06
2018-11-28T16:22:31.344Z,100284.36
2018-11-28T16:25:02.236Z,100290.06
2018-11-28T16:27:31.930Z,100291.48
2018-11-28T16:30:02.175Z,100293.20
2018-11-28T16:32:31.793Z,100295.77
2018-11-28T16:35:02.449Z,100291.19
2018-11-28T16:37:32.865Z,100296.82
2018-11-28T16:40:02.544Z,100288.36
2018-11-28T16:42:32.665Z,100284.19
2018-11-28T16:45:03.026Z,100278.50
2018-11-28T16:47:33.118Z,100279.48
2018-11-28T16:50:02.751Z,100281.59
2018-11-28T16:52:32.737Z,100282.56
2018-11-28T16:55:02.905Z,100285.77
2018-11-28T16:57:33.481Z,100280.72
2018-11-28T17:00:03.326Z,100283.97
2018-11-28T17:02:32.919Z,100281.99
2018-11-28T17:05:09.254Z,100283.60
2018-11-28T17:07:39.804Z,100288.59
2018-11-28T17:10:12.068Z,100285.16
2018-11-28T17:12:41.958Z,100288.67
2018-11-28T17:15:15.164Z,100283.09
2018-11-28T17:17:45.075Z,100280.46
2018-11-28T17:20:18.860Z,100280.60
2018-11-28T17:22:50.003Z,100281.42
2018-11-28T17:25:24.526Z,100286.77
2018-11-28T17:27:55.286Z,100294.97
2018-11-28T17:30:27.312Z,100294.97
2018-11-28T17:32:59.626Z,100289.50
2018-11-28T17:35:30.203Z,100274.80
2018-11-28T17:38:00.012Z,100284.72
2018-11-28T17:40:30.423Z,100283.80
2018-11-28T17:43:01.638Z,100279.85
2018-11-28T17:45:31.927Z,100275.31
2018-11-28T17:48:01.748Z,100280.08
2018-11-28T17:50:31.964Z,100279.77
2018-11-28T17:53:05.348Z,100277.53
2018-11-28T17:55:37.543Z,100272.71
2018-11-28T17:58:08.080Z,100264.14
2018-11-28T18:00:38.934Z,100257.68
2018-11-28T18:03:08.882Z,100255.25
2018-11-28T18:05:39.838Z,100259.53
2018-11-28T18:08:09.717Z,100253.69
2018-11-28T18:10:41.493Z,100250.27
2018-11-28T18:13:15.666Z,100242.83
2018-11-28T18:15:52.162Z,100236.68
2018-11-28T18:18:25.438Z,100232.98
2018-11-28T18:21:00.909Z,100233.28
2018-11-28T18:23:34.000Z,100238.45
2018-11-28T18:26:07.918Z,100236.00
2018-11-28T18:28:42.380Z,100235.93
2018-11-28T18:31:15.472Z,100230.13
2018-11-28T18:33:47.346Z,100233.06
2018-11-28T18:36:19.631Z,100233.34
2018-11-28T18:38:50.115Z,100228.48
2018-11-28T18:41:23.145Z,100228.91
2018-11-28T18:43:53.484Z,100226.64
2018-11-28T18:46:24.195Z,100222.60
2018-11-28T18:48:54.535Z,100231.83
2018-11-28T18:51:26.047Z,100239.73
2018-11-28T18:53:56.179Z,100237.95
2018-11-28T18:56:26.567Z,100247.41
2018-11-28T18:58:59.856Z,100246.31
2018-11-28T19:01:30.129Z,100234.98
2018-11-28T19:03:59.841Z,100234.86
2018-11-28T19:06:29.399Z,100233.14
2018-11-28T19:08:59.806Z,100233.67
2018-11-28T19:11:29.407Z,100239.48
2018-11-28T19:13:58.961Z,100245.28
2018-11-28T19:16:28.768Z,100241.24
2018-11-28T19:18:59.749Z,100242.70
2018-11-28T19:21:29.737Z,100240.78
2018-11-28T19:24:00.453Z,100037.60
2018-11-28T19:26:32.823Z,100245.20
2018-11-28T19:29:04.146Z,100256.33
2018-11-28T19:31:34.332Z,100259.91
2018-11-28T19:34:04.327Z,100267.34
2018-11-28T19:36:34.380Z,100262.29
2018-11-28T19:39:06.090Z,100275.27
2018-11-28T19:41:37.456Z,100285.40
2018-11-28T19:44:10.274Z,100269.21
2018-11-28T19:46:40.198Z,100270.98
2018-11-28T19:49:14.857Z,100274.44
2018-11-28T19:51:44.837Z,100262.65
2018-11-28T19:54:15.117Z,100268.52
2018-11-28T19:56:45.196Z,100270.12
2018-11-28T19:59:17.824Z,100271.47
2018-11-28T20:01:49.546Z,100267.12
2018-11-28T20:04:21.340Z,100264.05
2018-11-28T20:06:50.297Z,100249.36
2018-11-28T20:09:20.155Z,100239.28
2018-11-28T20:11:49.797Z,100241.52
2018-11-28T20:14:20.364Z,100129.54
2018-11-28T20:16:50.433Z,100225.92
2018-11-28T20:19:20.612Z,100232.30
2018-11-28T20:21:50.429Z,100236.42
2018-11-28T20:24:20.610Z,100231.23
2018-11-28T20:26:52.821Z,100226.58
2018-11-28T20:29:23.393Z,100218.45
2018-11-28T20:31:53.402Z,100215.25
2018-11-28T20:34:23.238Z,100214.59
2018-11-28T20:36:53.121Z,100224.97
2018-11-28T20:39:24.904Z,100226.47
2018-11-28T20:41:55.465Z,100224.08
2018-11-28T20:44:25.953Z,100236.44
2018-11-28T20:46:55.647Z,100235.15
2018-11-28T20:49:28.274Z,100238.70
2018-11-28T20:51:58.689Z,100133.70
2018-11-28T20:54:30.131Z,100234.66
2018-11-28T20:57:01.706Z,100225.84
2018-11-28T20:59:38.256Z,100225.02
2018-11-28T21:02:04.716Z,100225.02
2018-11-28T21:04:34.477Z,100226.94
2018-11-28T21:07:04.492Z,100219.02
2018-11-28T21:09:42.119Z,100214.84
2018-11-28T21:12:15.310Z,100211.25
2018-11-28T21:14:45.953Z,100205.61
2018-11-28T21:17:15.647Z,100215.66
2018-11-28T21:19:45.447Z,100219.09
2018-11-28T21:22:15.255Z,100214.17
2018-11-28T21:24:44.766Z,100213.03
2018-11-28T21:27:14.364Z,100216.28
2018-11-28T21:29:44.432Z,100210.75
2018-11-28T21:32:14.612Z,100219.69
2018-11-28T21:34:44.817Z,100208.30
2018-11-28T21:37:15.269Z,100210.42
2018-11-28T21:39:53.458Z,100213.96
2018-11-28T21:42:23.055Z,100195.64
2018-11-28T21:44:54.219Z,100192.05
2018-11-28T21:47:25.468Z,100188.14
2018-11-28T21:49:55.836Z,100185.08
2018-11-28T21:52:25.803Z,100191.56
2018-11-28T21:54:55.513Z,100190.45
2018-11-28T21:57:25.175Z,100184.13
2018-11-28T21:59:54.750Z,100179.68
2018-11-28T22:02:24.822Z,100171.05
2018-11-28T22:04:55.689Z,100169.88
2018-11-28T22:07:25.928Z,100167.65
2018-11-28T22:09:56.329Z,100186.13
2018-11-28T22:12:26.440Z,100183.53
2018-11-28T22:14:56.010Z,100182.23
2018-11-28T22:17:25.658Z,100176.71
2018-11-28T22:19:55.210Z,100161.11
2018-11-28T22:22:24.965Z,100169.80
2018-11-28T22:24:55.166Z,100161.88
2018-11-28T22:27:24.725Z,100158.09
2018-11-28T22:29:54.552Z,100157.91
2018-11-28T22:32:24.298Z,100160.33
2018-11-28T22:34:54.891Z,100157.73
2018-11-28T22:37:24.429Z,100143.42
2018-11-28T22:39:54.948Z,100141.16
2018-11-28T22:42:24.792Z,100148.92
2018-11-28T22:44:54.988Z,100160.25
2018-11-28T22:47:25.006Z,100164.70
2018-11-28T22:49:54.881Z,100167.45
2018-11-28T22:52:24.734Z,100171.05
2018-11-28T22:54:54.759Z,100175.09
2018-11-28T22:57:24.287Z,100172.28
2018-11-28T22:59:54.887Z,100170.00
2018-11-28T23:02:45.214Z,100172.37
2018-11-28T23:05:16.400Z,100172.20
2018-11-28T23:07:46.322Z,100169.34
2018-11-28T23:10:16.893Z,100174.84
2018-11-28T23:12:47.106Z,100174.65
2018-11-28T23:15:18.405Z,100179.72
2018-11-28T23:17:48.421Z,100177.47
2018-11-28T23:20:18.526Z,100169.41
2018-11-28T23:22:48.453Z,100169.06
2018-11-28T23:25:19.036Z,100165.81
2018-11-28T23:27:48.670Z,100167.17
2018-11-28T23:30:20.045Z,100165.08
2018-11-28T23:32:50.274Z,100155.52
2018-11-28T23:35:21.499Z,100160.42
2018-11-28T23:37:51.362Z,100154.98
2018-11-28T23:40:24.979Z,100150.48
2018-11-28T23:42:55.669Z,100144.64
2018-11-28T23:45:26.132Z,100139.30
2018-11-28T23:47:56.229Z,100143.39
2018-11-28T23:50:27.762Z,100137.81
2018-11-28T23:52:57.699Z,100146.94
2018-11-28T23:55:29.471Z,100125.45
2018-11-28T23:58:00.023Z,100124.81
